createdAt,value
2022-09-28T00:01:21.287Z,65.81
2022-09-28T00:06:25.106Z,65.58
2022-09-28T00:11:28.432Z,65.45
2022-09-28T00:16:34.042Z,65.68
2022-09-28T00:21:37.991Z,65.69
2022-09-28T00:26:43.515Z,65.58
2022-09-28T00:31:46.138Z,65.57
2022-09-28T00:36:48.955Z,65.50
2022-09-28T00:41:51.460Z,65.48
2022-09-28T00:46:56.076Z,65.66
2022-09-28T00:51:58.534Z,65.59
2022-09-28T00:57:03.130Z,65.56
2022-09-28T01:02:05.235Z,65.42
2022-09-28T01:07:09.174Z,65.48
2022-09-28T01:12:11.710Z,65.59
2022-09-28T01:17:20.587Z,65.35
2022-09-28T01:23:02.251Z,65.62
2022-09-28T01:28:14.607Z,65.67
2022-09-28T01:33:23.683Z,65.36
2022-09-28T01:38:31.481Z,65.42
2022-09-28T01:43:38.661Z,65.62
2022-09-28T01:48:50.328Z,65.54
2022-09-28T01:54:00.733Z,65.41
2022-09-28T01:59:06.671Z,65.48
2022-09-28T02:04:23.813Z,65.47
2022-09-28T02:09:49.634Z,65.37
2022-09-28T02:14:57.110Z,65.63
2022-09-28T02:19:59.501Z,65.48
2022-09-28T02:25:31.643Z,65.42
2022-09-28T02:30:37.312Z,65.34
2022-09-28T02:35:42.032Z,65.29
2022-09-28T02:41:11.701Z,65.37
2022-09-28T02:46:28.580Z,65.25
2022-09-28T02:51:46.374Z,65.29
2022-09-28T02:56:50.563Z,65.42
2022-09-28T03:02:10.830Z,65.19
2022-09-28T03:07:12.844Z,65.43
2022-09-28T03:12:19.678Z,65.23
2022-09-28T03:17:22.247Z,65.12
2022-09-28T03:22:24.326Z,65.29
2022-09-28T03:27:26.394Z,65.29
2022-09-28T03:32:28.437Z,65.46
2022-09-28T03:37:30.544Z,65.62
2022-09-28T03:42:35.448Z,65.47
2022-09-28T03:47:37.672Z,65.30
2022-09-28T03:52:39.663Z,65.33
2022-09-28T03:57:41.704Z,65.01
2022-09-28T04:02:43.859Z,65.46
2022-09-28T04:07:46.070Z,65.32
2022-09-28T04:12:49.897Z,65.35
2022-09-28T04:17:52.798Z,65.34
2022-09-28T04:23:17.554Z,64.72
2022-09-28T04:28:38.274Z,64.88
2022-09-28T04:33:40.791Z,64.92
2022-09-28T04:38:52.874Z,64.90
2022-09-28T04:43:57.326Z,64.73
2022-09-28T04:49:00.583Z,64.55
2022-09-28T04:54:21.410Z,63.67
2022-09-28T04:59:23.703Z,64.17
2022-09-28T05:04:26.354Z,64.11
2022-09-28T05:09:56.094Z,63.74
2022-09-28T05:14:58.095Z,64.02
2022-09-28T05:20:00.868Z,64.24
2022-09-28T05:25:03.417Z,64.20
2022-09-28T05:30:12.603Z,64.35
2022-09-28T05:35:32.047Z,64.48
2022-09-28T05:40:34.168Z,64.38
2022-09-28T05:45:36.443Z,64.57
2022-09-28T05:50:39.796Z,63.84
2022-09-28T05:55:41.803Z,64.23
2022-09-28T06:00:44.349Z,64.38
2022-09-28T06:05:47.640Z,64.37
2022-09-28T06:10:49.742Z,64.26
2022-09-28T06:15:52.280Z,64.62
2022-09-28T06:20:54.303Z,64.74
2022-09-28T06:26:06.070Z,64.66
2022-09-28T06:31:08.395Z,64.97
2022-09-28T06:36:18.883Z,65.19
2022-09-28T06:41:21.219Z,65.23
2022-09-28T06:46:23.556Z,64.83
2022-09-28T06:51:46.256Z,64.75
2022-09-28T06:56:57.231Z,64.96
2022-09-28T07:01:59.911Z,64.93
2022-09-28T07:07:37.206Z,64.99
2022-09-28T07:12:55.254Z,64.90
2022-09-28T07:18:08.257Z,64.69
2022-09-28T07:23:18.638Z,64.25
2022-09-28T07:28:43.205Z,64.45
2022-09-28T07:34:03.992Z,64.35
2022-09-28T07:39:26.033Z,64.31
2022-09-28T07:44:29.851Z,64.22
2022-09-28T07:49:32.987Z,64.04
2022-09-28T07:54:55.698Z,63.60
2022-09-28T08:00:12.141Z,63.55
2022-09-28T08:05:18.968Z,63.28
2022-09-28T08:10:21.105Z,63.51
2022-09-28T08:15:55.655Z,63.45
2022-09-28T08:21:26.550Z,63.12
2022-09-28T08:26:29.855Z,62.90
2022-09-28T08:31:33.057Z,63.07
2022-09-28T08:36:49.036Z,63.07
2022-09-28T08:42:42.938Z,63.30
2022-09-28T08:48:20.974Z,63.07
2022-09-28T08:54:11.753Z,62.96
2022-09-28T08:59:56.599Z,63.50
2022-09-28T09:05:13.570Z,63.21
2022-09-28T09:10:57.980Z,63.63
2022-09-28T09:16:36.687Z,63.41
2022-09-28T09:22:17.712Z,63.50
2022-09-28T09:28:02.243Z,63.84
2022-09-28T09:33:13.669Z,63.99
2022-09-28T09:38:47.524Z,64.24
2022-09-28T09:44:30.665Z,64.01
2022-09-28T09:50:06.868Z,64.02
2022-09-28T09:55:11.004Z,64.09
2022-09-28T10:00:19.401Z,64.42
2022-09-28T10:05:36.083Z,64.41
2022-09-28T10:10:39.366Z,65.10
2022-09-28T10:15:48.223Z,64.82
2022-09-28T10:21:05.005Z,65.01
2022-09-28T10:26:38.162Z,64.96
2022-09-28T10:31:50.382Z,64.87
2022-09-28T10:37:04.526Z,65.01
2022-09-28T10:42:38.976Z,65.08
2022-09-28T10:47:44.579Z,64.93
2022-09-28T10:52:49.035Z,65.04
2022-09-28T10:58:29.098Z,64.88
2022-09-28T11:03:32.083Z,65.17
2022-09-28T11:08:44.531Z,65.05
2022-09-28T11:13:54.674Z,64.81
2022-09-28T11:19:26.351Z,64.79
2022-09-28T11:24:29.688Z,64.91
2022-09-28T11:29:47.050Z,64.92
2022-09-28T11:35:19.921Z,65.38
2022-09-28T11:40:41.066Z,65.25
2022-09-28T11:46:09.284Z,64.87
2022-09-28T11:51:32.304Z,64.85
2022-09-28T11:56:40.152Z,65.26
2022-09-28T12:01:49.090Z,65.20
2022-09-28T12:07:14.225Z,65.64
2022-09-28T12:12:33.808Z,65.45
2022-09-28T12:17:46.892Z,65.41
2022-09-28T12:23:02.903Z,65.61
2022-09-28T12:28:13.453Z,65.64
2022-09-28T12:33:15.764Z,65.75
2022-09-28T12:38:29.668Z,65.56
2022-09-28T12:43:54.745Z,65.60
2022-09-28T12:54:36.907Z,65.71
2022-09-28T12:59:47.348Z,66.13
2022-09-28T13:05:26.729Z,65.70
2022-09-28T13:10:55.108Z,65.69
2022-09-28T13:16:12.849Z,65.76
2022-09-28T13:21:28.523Z,65.75
2022-09-28T13:26:38.182Z,66.16
2022-09-28T13:31:53.029Z,66.22
2022-09-28T13:37:24.292Z,66.10
2022-09-28T13:42:44.480Z,65.93
2022-09-28T13:47:58.421Z,66.02
2022-09-28T13:53:08.167Z,65.92
2022-09-28T13:58:38.589Z,66.31
2022-09-28T14:03:49.668Z,66.49
2022-09-28T14:09:13.435Z,66.41
2022-09-28T14:14:16.199Z,65.96
2022-09-28T14:19:24.488Z,65.51
2022-09-28T14:24:45.359Z,65.51
2022-09-28T14:29:53.975Z,65.19
2022-09-28T14:35:03.991Z,65.12
2022-09-28T14:40:35.580Z,65.32
2022-09-28T14:45:38.515Z,65.34
2022-09-28T14:50:40.797Z,65.56
2022-09-28T14:55:51.441Z,65.49
2022-09-28T15:01:02.881Z,64.91
2022-09-28T15:06:05.100Z,64.29
2022-09-28T15:11:14.674Z,64.18
2022-09-28T15:16:17.978Z,64.45
2022-09-28T15:21:20.888Z,64.17
2022-09-28T15:26:31.071Z,63.89
2022-09-28T15:31:36.013Z,64.30
2022-09-28T15:36:43.309Z,64.28
2022-09-28T15:41:47.969Z,64.36
2022-09-28T15:46:52.232Z,64.36
2022-09-28T15:51:58.228Z,64.58
2022-09-28T15:57:02.822Z,64.27
2022-09-28T16:02:22.826Z,63.73
2022-09-28T16:07:41.935Z,64.01
2022-09-28T16:12:48.857Z,63.93
2022-09-28T16:17:52.473Z,63.38
2022-09-28T16:22:57.042Z,63.95
2022-09-28T16:27:59.197Z,63.34
2022-09-28T16:33:05.812Z,63.89
2022-09-28T16:38:14.534Z,62.50
2022-09-28T16:43:31.322Z,62.28
2022-09-28T16:48:37.583Z,61.43
2022-09-28T16:53:58.216Z,61.62
2022-09-28T16:59:01.298Z,61.59
2022-09-28T17:04:03.555Z,61.64
2022-09-28T17:09:07.304Z,61.02
2022-09-28T17:14:09.641Z,60.88
2022-09-28T17:19:24.022Z,60.83
2022-09-28T17:24:26.318Z,60.98
2022-09-28T17:29:28.352Z,59.94
2022-09-28T17:34:30.410Z,60.66
2022-09-28T17:39:32.374Z,60.99
2022-09-28T17:44:34.596Z,60.74
2022-09-28T17:49:38.978Z,60.97
2022-09-28T17:54:40.968Z,60.90
2022-09-28T17:59:42.924Z,61.54
2022-09-28T18:10:24.547Z,61.23
2022-09-28T18:15:26.847Z,61.24
2022-09-28T18:20:29.875Z,61.11
2022-09-28T18:25:32.231Z,61.15
2022-09-28T18:30:34.290Z,61.72
2022-09-28T18:35:36.937Z,62.08
2022-09-28T18:40:39.065Z,61.84
2022-09-28T18:45:41.403Z,62.48
2022-09-28T18:50:43.562Z,62.62
2022-09-28T18:55:45.673Z,62.50
2022-09-28T19:00:47.840Z,62.11
2022-09-28T19:05:49.823Z,62.18
2022-09-28T19:10:51.806Z,61.47
2022-09-28T19:15:53.791Z,61.64
2022-09-28T19:20:55.770Z,61.37
2022-09-28T19:25:58.024Z,61.07
2022-09-28T19:36:13.734Z,60.48
2022-09-28T19:41:40.775Z,60.47
2022-09-28T19:46:44.306Z,60.51
2022-09-28T19:57:15.946Z,60.50
2022-09-28T20:02:18.292Z,60.46
2022-09-28T20:07:20.817Z,60.75
2022-09-28T20:12:23.334Z,60.77
2022-09-28T20:17:25.304Z,62.00
2022-09-28T20:22:27.263Z,62.88
2022-09-28T20:27:29.309Z,62.76
2022-09-28T20:32:32.507Z,62.86
2022-09-28T20:37:34.808Z,62.99
2022-09-28T20:42:38.183Z,62.98
2022-09-28T20:47:40.752Z,63.34
2022-09-28T20:52:42.745Z,63.42
2022-09-28T20:57:45.521Z,63.23
2022-09-28T21:02:51.664Z,63.40
2022-09-28T21:07:53.645Z,63.41
2022-09-28T21:12:55.582Z,63.32
2022-09-28T21:17:57.781Z,63.75
2022-09-28T21:22:59.772Z,63.68
2022-09-28T21:28:01.853Z,63.48
2022-09-28T21:33:03.796Z,63.55
2022-09-28T21:38:06.079Z,63.80
2022-09-28T21:43:08.210Z,63.74
2022-09-28T21:48:10.142Z,63.93
2022-09-28T21:53:12.079Z,63.77
2022-09-28T21:58:14.040Z,64.10
2022-09-28T22:03:17.312Z,63.93
2022-09-28T22:08:20.350Z,63.89
2022-09-28T22:13:22.562Z,64.21
2022-09-28T22:18:27.129Z,63.89
2022-09-28T22:23:30.163Z,63.91
2022-09-28T22:28:32.439Z,63.79
2022-09-28T22:33:34.793Z,63.11
2022-09-28T22:38:37.530Z,62.96
2022-09-28T22:43:39.659Z,62.52
2022-09-28T22:48:44.651Z,62.88
2022-09-28T22:53:47.223Z,63.22
2022-09-28T22:58:49.233Z,63.32
2022-09-28T23:03:53.014Z,63.21
2022-09-28T23:08:55.393Z,63.67
2022-09-28T23:13:59.076Z,63.79
2022-09-28T23:19:01.198Z,63.69
2022-09-28T23:24:03.624Z,63.70
2022-09-28T23:29:06.216Z,63.84
2022-09-28T23:34:10.508Z,63.89
2022-09-28T23:39:12.476Z,64.17
2022-09-28T23:44:14.523Z,64.19
2022-09-28T23:49:16.600Z,64.05
2022-09-28T23:54:18.839Z,64.26
2022-09-28T23:59:20.837Z,64.21
